Time,TemperatureF,DewpointF,PressureIn,WindDirection,WindDirectionDegrees,WindSpeedMPH,WindSpeedGustMPH,Humidity,HourlyPrecipIn,Conditions,Clouds,dailyrainin,SolarRadiationWatts/m^2,SoftwareType,DateUTC
2013-08-31 00:42:00,58.0,42.0,-100.00,NW,322,2.0,4.0,55,0.00,,,0.00,0.000000,,2013-08-31 06:42:00,
2013-08-31 00:52:00,58.0,42.0,-100.00,NW,322,2.0,4.0,55,0.00,,,0.00,0.000000,,2013-08-31 06:52:00,
2013-08-31 01:01:00,58.0,42.0,-100.00,NW,322,2.0,4.0,55,0.00,,,0.00,0.000000,,2013-08-31 07:01:00,
2013-08-31 01:02:00,57.0,42.0,-100.00,NNW,343,2.0,3.0,57,0.00,,,0.00,0.000000,,2013-08-31 07:02:00,
2013-08-31 01:42:00,57.0,42.0,-100.00,NNW,343,2.0,3.0,57,0.00,,,0.00,0.000000,,2013-08-31 07:42:00,
2013-08-31 01:52:00,57.0,42.0,-100.00,NNW,343,2.0,3.0,57,0.00,,,0.00,0.000000,,2013-08-31 07:52:00,
2013-08-31 02:02:00,57.0,43.0,-100.00,NW,323,2.0,4.0,60,-99.99,,,0.00,0.000000,,2013-08-31 08:02:00,
2013-08-31 02:22:00,57.0,43.0,-100.00,NW,323,2.0,4.0,60,-99.99,,,0.00,0.000000,,2013-08-31 08:22:00,
2013-08-31 02:32:00,57.0,43.0,-100.00,NW,323,2.0,4.0,60,-99.99,,,0.00,0.000000,,2013-08-31 08:32:00,
2013-08-31 02:42:00,57.0,43.0,-100.00,NW,323,2.0,4.0,60,-99.99,,,0.00,0.000000,,2013-08-31 08:42:00,
2013-08-31 02:52:00,57.0,43.0,-100.00,NW,323,2.0,4.0,60,-99.99,,,0.00,0.000000,,2013-08-31 08:52:00,
2013-08-31 03:23:00,55.0,41.0,-100.00,NW,325,2.0,3.0,60,0.00,,,0.00,0.000000,,2013-08-31 09:23:00,
2013-08-31 03:33:00,55.0,41.0,-100.00,NW,325,2.0,3.0,60,0.00,,,0.00,0.000000,,2013-08-31 09:33:00,
2013-08-31 03:44:00,55.0,41.0,-100.00,NW,325,2.0,3.0,60,0.00,,,0.00,0.000000,,2013-08-31 09:44:00,
2013-08-31 04:23:00,54.0,41.0,-100.00,West,266,1.0,5.0,62,0.00,,,0.00,0.000000,,2013-08-31 10:23:00,
2013-08-31 04:33:00,54.0,41.0,-100.00,West,266,1.0,5.0,62,0.00,,,0.00,0.000000,,2013-08-31 10:33:00,
2013-08-31 04:43:00,54.0,41.0,-100.00,West,266,1.0,5.0,62,0.00,,,0.00,0.000000,,2013-08-31 10:43:00,
2013-08-31 05:02:00,54.0,42.0,-100.00,WNW,293,2.0,3.0,63,-99.99,,,0.00,0.000000,,2013-08-31 11:02:00,
2013-08-31 05:42:00,54.0,42.0,-100.00,WNW,293,2.0,3.0,63,-99.99,,,0.00,0.000000,,2013-08-31 11:42:00,
2013-08-31 05:52:00,54.0,42.0,-100.00,WNW,293,2.0,3.0,63,-99.99,,,0.00,0.000000,,2013-08-31 11:52:00,
2013-08-31 06:42:00,53.0,41.0,-100.00,WNW,298,2.0,4.0,64,-99.99,,,0.00,0.000000,,2013-08-31 12:42:00,
2013-08-31 07:42:00,53.0,42.0,-100.00,NW,306,2.0,4.0,65,-99.99,,,0.00,1.000000,,2013-08-31 13:42:00,
2013-08-31 08:52:00,57.0,43.0,-100.00,ENE,62,1.0,4.0,60,-99.99,,,0.00,38.000000,,2013-08-31 14:52:00,
2013-08-31 09:01:00,57.0,43.0,-100.00,ENE,62,1.0,4.0,60,-99.99,,,0.00,38.000000,,2013-08-31 15:01:00,
2013-08-31 09:02:00,61.0,43.0,-100.00,SSE,150,3.0,4.0,51,-99.99,,,0.00,100.000000,,2013-08-31 15:02:00,
2013-08-31 09:45:00,61.0,43.0,-100.00,SSE,150,3.0,4.0,51,-99.99,,,0.00,100.000000,,2013-08-31 15:45:00,
2013-08-31 09:55:00,61.0,43.0,-100.00,SSE,150,3.0,4.0,51,-99.99,,,0.00,100.000000,,2013-08-31 15:55:00,
2013-08-31 10:02:00,65.0,47.0,-100.00,SSE,154,4.0,6.0,52,0.00,,,-99.99,247.000000,,2013-08-31 16:02:00,
2013-08-31 10:44:00,65.0,47.0,-100.00,SSE,154,4.0,6.0,52,0.00,,,-99.99,247.000000,,2013-08-31 16:44:00,
2013-08-31 10:52:00,65.0,47.0,-100.00,SSE,154,4.0,6.0,52,0.00,,,-99.99,247.000000,,2013-08-31 16:52:00,
2013-08-31 11:02:00,67.0,46.0,-100.00,SE,130,4.0,7.0,46,0.00,,,0.00,661.000000,,2013-08-31 17:02:00,
2013-08-31 11:23:00,67.0,46.0,-100.00,SE,130,4.0,7.0,46,0.00,,,0.00,661.000000,,2013-08-31 17:23:00,
2013-08-31 11:34:00,67.0,46.0,-100.00,SE,130,4.0,7.0,46,0.00,,,0.00,661.000000,,2013-08-31 17:34:00,
2013-08-31 11:43:00,67.0,46.0,-100.00,SE,130,4.0,7.0,46,0.00,,,0.00,661.000000,,2013-08-31 17:43:00,
2013-08-31 11:53:00,67.0,46.0,-100.00,SE,130,4.0,7.0,46,0.00,,,0.00,661.000000,,2013-08-31 17:53:00,
2013-08-31 12:42:00,70.0,46.0,-100.00,SSE,147,4.0,8.0,43,0.00,,,0.00,796.000000,,2013-08-31 18:42:00,
2013-08-31 12:52:00,70.0,46.0,-100.00,SSE,147,4.0,8.0,43,0.00,,,0.00,796.000000,,2013-08-31 18:52:00,
2013-08-31 13:01:00,70.0,46.0,-100.00,SSE,147,4.0,8.0,43,0.00,,,0.00,796.000000,,2013-08-31 19:01:00,
2013-08-31 13:02:00,74.0,46.0,-100.00,SE,146,5.0,8.0,37,0.00,,,-99.99,890.000000,,2013-08-31 19:02:00,
2013-08-31 13:42:00,74.0,46.0,-100.00,SE,146,5.0,8.0,37,0.00,,,-99.99,890.000000,,2013-08-31 19:42:00,
2013-08-31 13:52:00,74.0,46.0,-100.00,SE,146,5.0,8.0,37,0.00,,,-99.99,890.000000,,2013-08-31 19:52:00,
2013-08-31 14:42:00,77.0,44.0,-100.00,SE,134,4.0,10.0,31,0.00,,,0.00,852.000000,,2013-08-31 20:42:00,
2013-08-31 14:52:00,77.0,44.0,-100.00,SE,134,4.0,10.0,31,0.00,,,0.00,852.000000,,2013-08-31 20:52:00,
2013-08-31 15:01:00,77.0,44.0,-100.00,SE,134,4.0,10.0,31,0.00,,,0.00,852.000000,,2013-08-31 21:01:00,
2013-08-31 15:02:00,77.0,41.0,-100.00,ESE,102,4.0,8.0,28,0.00,,,0.00,865.000000,,2013-08-31 21:02:00,
2013-08-31 15:44:00,77.0,41.0,-100.00,ESE,102,4.0,8.0,28,0.00,,,0.00,865.000000,,2013-08-31 21:44:00,
2013-08-31 15:54:00,77.0,41.0,-100.00,ESE,102,4.0,8.0,28,0.00,,,0.00,865.000000,,2013-08-31 21:54:00,
2013-08-31 16:02:00,78.0,42.0,-100.00,ESE,105,4.0,10.0,28,0.00,,,0.00,816.000000,,2013-08-31 22:02:00,
2013-08-31 16:43:00,78.0,42.0,-100.00,ESE,105,4.0,10.0,28,0.00,,,0.00,816.000000,,2013-08-31 22:43:00,
2013-08-31 16:53:00,78.0,42.0,-100.00,ESE,105,4.0,10.0,28,0.00,,,0.00,816.000000,,2013-08-31 22:53:00,
2013-08-31 17:42:00,74.0,39.0,-100.00,East,86,4.0,9.0,28,0.00,,,0.00,518.000000,,2013-08-31 23:42:00,
2013-08-31 17:52:00,74.0,39.0,-100.00,East,86,4.0,9.0,28,0.00,,,0.00,518.000000,,2013-08-31 23:52:00,
2013-08-31 18:01:00,74.0,39.0,-100.00,East,86,4.0,9.0,28,0.00,,,0.00,518.000000,,2013-09-01 00:01:00,
2013-08-31 18:02:00,72.0,40.0,-100.00,ENE,64,3.0,7.0,31,0.00,,,0.00,72.000000,,2013-09-01 00:02:00,
2013-08-31 18:52:00,72.0,40.0,-100.00,ENE,64,3.0,7.0,31,0.00,,,0.00,72.000000,,2013-09-01 00:52:00,
2013-08-31 19:02:00,69.0,40.0,-100.00,North,357,2.0,5.0,35,0.00,,,0.00,36.000000,,2013-09-01 01:02:00,
2013-08-31 19:22:00,69.0,40.0,-100.00,North,357,2.0,5.0,35,0.00,,,0.00,36.000000,,2013-09-01 01:22:00,
2013-08-31 19:32:00,69.0,40.0,-100.00,North,357,2.0,5.0,35,0.00,,,0.00,36.000000,,2013-09-01 01:32:00,
2013-08-31 19:52:00,69.0,40.0,-100.00,North,357,2.0,5.0,35,0.00,,,0.00,36.000000,,2013-09-01 01:52:00,
2013-08-31 20:02:00,67.0,37.0,-100.00,NNW,345,2.0,3.0,33,0.00,,,0.00,16.000000,,2013-09-01 02:02:00,
2013-08-31 20:23:00,67.0,37.0,-100.00,NNW,345,2.0,3.0,33,0.00,,,0.00,16.000000,,2013-09-01 02:23:00,
2013-08-31 20:32:00,67.0,37.0,-100.00,NNW,345,2.0,3.0,33,0.00,,,0.00,16.000000,,2013-09-01 02:32:00,
2013-08-31 20:43:00,67.0,37.0,-100.00,NNW,345,2.0,3.0,33,0.00,,,0.00,16.000000,,2013-09-01 02:43:00,
2013-08-31 20:53:00,67.0,37.0,-100.00,NNW,345,2.0,3.0,33,0.00,,,0.00,16.000000,,2013-09-01 02:53:00,
2013-08-31 21:02:00,-999.0,-99.9,-100.00,NW,315,2.0,4.0,-999,-99.99,,,-99.99,2.000000,,2013-09-01 03:02:00,
2013-08-31 21:23:00,66.0,37.0,-100.00,NW,315,2.0,4.0,34,0.00,,,0.00,2.000000,,2013-09-01 03:23:00,
2013-08-31 21:35:00,66.0,37.0,-100.00,NW,315,2.0,4.0,34,0.00,,,0.00,2.000000,,2013-09-01 03:35:00,
2013-08-31 21:44:00,66.0,37.0,-100.00,NW,315,2.0,4.0,34,0.00,,,0.00,2.000000,,2013-09-01 03:44:00,
2013-08-31 21:54:00,66.0,37.0,-100.00,NW,315,2.0,4.0,34,0.00,,,0.00,2.000000,,2013-09-01 03:54:00,
2013-08-31 22:02:00,66.0,37.0,-100.00,NW,317,2.0,3.0,34,0.00,,,0.00,0.000000,,2013-09-01 04:02:00,
2013-08-31 22:25:00,66.0,37.0,-100.00,NW,317,2.0,3.0,34,0.00,,,0.00,0.000000,,2013-09-01 04:25:00,
2013-08-31 22:34:00,66.0,37.0,-100.00,NW,317,2.0,3.0,34,0.00,,,0.00,0.000000,,2013-09-01 04:34:00,
2013-08-31 22:43:00,66.0,37.0,-100.00,NW,317,2.0,3.0,34,0.00,,,0.00,0.000000,,2013-09-01 04:43:00,
2013-08-31 22:54:00,66.0,37.0,-100.00,NW,317,2.0,3.0,34,0.00,,,0.00,0.000000,,2013-09-01 04:54:00,
2013-08-31 23:02:00,66.0,38.0,-100.00,NW,321,2.0,4.0,35,0.00,,,0.00,0.000000,,2013-09-01 05:02:00,
2013-08-31 23:43:00,66.0,38.0,-100.00,NW,321,2.0,4.0,35,0.00,,,0.00,0.000000,,2013-09-01 05:43:00,
2013-08-31 23:52:00,66.0,38.0,-100.00,NW,321,2.0,4.0,35,0.00,,,0.00,0.000000,,2013-09-01 05:52:00,